Time;durP1;ratioP1;P1;durP2;ratioP2;P2;SDS_P1;SDS_P2;PMS_P1;PMS_P2;Temp;Humidity;BMP_temperature;BMP_pressure;BME280_temperature;BME280_humidity;BME280_pressure;Samples;Min_cycle;Max_cycle;Signal;HPM_P1;HPM_P2
2022/05/27 00:02:26;;;;;;;5.10;1.80;;;;;;;18.95;48.30;99164.73;233735;1217;138838;-62
2022/05/27 00:07:29;;;;;;;8.00;2.20;;;;;;;18.95;48.35;99162.73;233212;1217;139105;-61
2022/05/27 00:12:32;;;;;;;3.50;1.70;;;;;;;18.91;48.45;99160.90;232458;1217;138958;-62
2022/05/27 00:17:35;;;;;;;4.80;1.80;;;;;;;18.90;48.26;99166.44;233533;1217;138800;-62
2022/05/27 00:22:38;;;;;;;3.40;1.60;;;;;;;18.85;48.49;99158.98;233144;1217;138746;-61
2022/05/27 00:27:41;;;;;;;4.90;1.50;;;;;;;18.82;48.50;99153.89;232855;1217;139216;-61
2022/05/27 00:32:44;;;;;;;3.80;1.70;;;;;;;18.77;48.64;99147.47;233562;1217;140715;-62
2022/05/27 00:37:47;;;;;;;2.90;1.70;;;;;;;18.76;48.55;99142.90;233584;1217;139041;-63
2022/05/27 00:42:51;;;;;;;6.40;1.80;;;;;;;18.73;48.72;99142.46;233678;1217;139428;-62
2022/05/27 00:47:57;;;;;;;4.70;1.70;;;;;;;18.70;48.60;99139.16;233596;1217;138700;-63
2022/05/27 00:53:04;;;;;;;3.70;1.70;;;;;;;18.71;48.76;99139.04;233482;1217;139455;-64
2022/05/27 00:58:16;;;;;;;6.20;1.70;;;;;;;18.69;48.71;99133.12;233719;1215;139194;-63
2022/05/27 01:03:20;;;;;;;4.70;1.90;;;;;;;18.71;48.89;99136.75;233410;1217;139101;-63
2022/05/27 01:08:26;;;;;;;7.80;1.90;;;;;;;18.64;48.84;99129.61;233584;1217;138860;-63
2022/05/27 01:13:54;;;;;;;5.30;1.90;;;;;;;18.60;48.91;99127.63;233723;1215;139384;-62
2022/05/27 01:24:37;;;;;;;3.80;1.50;;;;;;;18.59;49.00;99126.86;232794;1217;139225;-61
2022/05/27 01:30:22;;;;;;;2.50;1.50;;;;;;;18.51;48.99;99121.65;232862;1217;138911;-61
2022/05/27 01:35:37;;;;;;;3.80;1.60;;;;;;;18.44;48.80;99112.84;233651;1217;138833;-62
2022/05/27 01:40:54;;;;;;;3.60;1.70;;;;;;;18.42;49.09;99113.15;233544;1217;138769;-63
2022/05/27 01:46:19;;;;;;;4.90;1.50;;;;;;;18.39;49.11;99105.52;233382;1217;138828;-60
2022/05/27 01:51:38;;;;;;;3.20;1.50;;;;;;;18.38;48.94;99106.60;233579;1217;138645;-62
2022/05/27 01:56:49;;;;;;;5.40;1.40;;;;;;;18.33;49.10;99105.73;232497;1217;138636;-61
2022/05/27 02:01:59;;;;;;;2.30;1.20;;;;;;;18.29;49.00;99093.20;233682;1217;139034;-61
2022/05/27 02:07:09;;;;;;;5.60;1.40;;;;;;;18.28;49.11;99094.95;232836;1217;138703;-59
2022/05/27 02:12:21;;;;;;;3.10;1.20;;;;;;;18.27;48.98;99085.13;233652;1217;139592;-60
2022/05/27 02:17:30;;;;;;;2.70;1.00;;;;;;;18.25;48.95;99083.78;233767;1217;139025;-61
2022/05/27 02:22:39;;;;;;;4.50;1.30;;;;;;;18.23;49.11;99084.06;233042;1217;139736;-62
2022/05/27 02:27:51;;;;;;;3.30;1.30;;;;;;;18.24;48.89;99083.98;233595;1217;140668;-61
2022/05/27 02:38:48;;;;;;;3.30;1.10;;;;;;;18.19;49.06;99071.16;233431;1217;139697;-61
2022/05/27 02:44:05;;;;;;;2.00;1.20;;;;;;;18.17;48.93;99070.41;233721;1217;138827;-62
2022/05/27 02:49:25;;;;;;;7.50;1.40;;;;;;;18.19;48.97;99068.05;233463;1217;138252;-61
2022/05/27 02:55:02;;;;;;;4.50;1.30;;;;;;;18.20;49.15;99061.39;233669;1217;139155;-62
2022/05/27 03:00:09;;;;;;;2.30;1.20;;;;;;;18.19;49.32;99055.68;233305;1217;139040;-64
2022/05/27 03:05:16;;;;;;;5.20;1.20;;;;;;;18.21;49.14;99053.52;233663;1217;140150;-64
2022/05/27 03:10:29;;;;;;;3.20;1.00;;;;;;;18.19;49.10;99049.45;233699;1217;139331;-64
2022/05/27 03:15:54;;;;;;;3.60;1.30;;;;;;;18.20;49.12;99056.13;233536;1217;138845;-64
2022/05/27 03:21:23;;;;;;;5.70;1.30;;;;;;;18.18;49.27;99048.73;233259;1217;138500;-68
2022/05/27 03:26:44;;;;;;;3.00;1.00;;;;;;;18.21;49.34;99049.75;233370;1217;138859;-62
2022/05/27 03:31:59;;;;;;;3.80;1.40;;;;;;;18.23;49.28;99045.30;232387;1217;139762;-61
2022/05/27 03:37:16;;;;;;;5.80;1.30;;;;;;;18.23;49.23;99050.34;232093;1216;138833;-61
2022/05/27 03:42:23;;;;;;;6.60;1.40;;;;;;;18.19;49.36;99045.86;233633;1217;138675;-64
2022/05/27 03:47:26;;;;;;;3.70;1.40;;;;;;;18.19;49.36;99039.89;232161;1217;139412;-61
2022/05/27 03:52:36;;;;;;;6.50;1.40;;;;;;;18.15;49.46;99037.73;233775;1217;139329;-64
2022/05/27 03:57:39;;;;;;;4.30;1.10;;;;;;;18.15;49.47;99035.77;233406;1217;139000;-63
2022/05/27 04:02:43;;;;;;;4.30;1.60;;;;;;;18.22;49.60;99032.31;233482;1217;139746;-63
2022/05/27 04:07:46;;;;;;;3.90;1.60;;;;;;;18.23;49.48;99023.98;232778;1217;139404;-65
2022/05/27 04:12:49;;;;;;;4.20;1.20;;;;;;;18.21;49.72;99019.61;233751;1217;139435;-60
2022/05/27 04:17:52;;;;;;;28.60;20.60;;;;;;;18.25;49.67;99018.73;233626;1217;139327;-58
2022/05/27 04:22:55;;;;;;;6.20;2.60;;;;;;;18.31;49.68;99015.23;233566;1217;139625;-60
2022/05/27 04:27:58;;;;;;;5.00;1.60;;;;;;;18.40;49.74;99007.55;233630;1217;138761;-60
2022/05/27 04:33:01;;;;;;;29.50;23.60;;;;;;;18.46;49.78;99007.31;233146;1217;138796;-61
2022/05/27 04:38:05;;;;;;;6.80;1.80;;;;;;;18.51;49.37;99005.82;233677;1217;139206;-59
2022/05/27 04:43:09;;;;;;;26.40;19.20;;;;;;;18.53;49.53;99006.92;233537;1217;139554;-60
2022/05/27 04:48:13;;;;;;;5.30;1.80;;;;;;;18.59;49.51;99007.19;232709;1217;139271;-60
2022/05/27 04:53:16;;;;;;;69.80;57.50;;;;;;;18.65;49.53;99000.63;233502;1217;139134;-62
2022/05/27 04:58:19;;;;;;;6.60;2.70;;;;;;;18.76;49.52;98995.14;233597;1217;138950;-63
2022/05/27 05:03:22;;;;;;;6.70;1.10;;;;;;;18.78;49.18;98992.80;233106;1217;138800;-62
2022/05/27 05:08:33;;;;;;;4.10;1.30;;;;;;;18.74;49.11;98986.02;232186;1217;140175;-61
2022/05/27 05:13:36;;;;;;;52.60;38.90;;;;;;;18.72;49.06;98978.46;233579;1217;139396;-61
2022/05/27 05:18:39;;;;;;;5.70;2.00;;;;;;;18.77;49.08;98977.41;233644;1217;139024;-61
2022/05/27 05:23:42;;;;;;;4.50;1.00;;;;;;;18.78;48.78;98976.26;233559;1217;138735;-59
2022/05/27 05:28:45;;;;;;;2.70;1.00;;;;;;;18.81;48.98;98970.17;233556;1217;139780;-59
2022/05/27 05:33:48;;;;;;;6.20;1.90;;;;;;;18.88;48.89;98961.79;233533;1217;139232;-63
2022/05/27 05:38:52;;;;;;;2.30;1.20;;;;;;;18.99;49.11;98955.35;233059;1217;139821;-62
2022/05/27 05:43:56;;;;;;;1.70;1.10;;;;;;;19.09;48.92;98954.46;233309;1217;138838;-61
2022/05/27 05:49:00;;;;;;;5.50;1.30;;;;;;;19.16;48.79;98954.25;233423;1217;139171;-62
2022/05/27 05:54:03;;;;;;;4.60;1.60;;;;;;;19.19;48.69;98949.40;233697;1217;138508;-63
2022/05/27 05:59:06;;;;;;;4.20;1.20;;;;;;;19.22;48.46;98949.20;233598;1217;138692;-62
2022/05/27 06:04:10;;;;;;;7.20;3.40;;;;;;;19.23;48.36;98945.75;232465;1217;138748;-61
2022/05/27 06:09:13;;;;;;;19.00;11.50;;;;;;;19.22;48.41;98941.01;233647;1215;139293;-61
2022/05/27 06:14:16;;;;;;;3.70;1.10;;;;;;;19.18;48.35;98941.40;233728;1217;139844;-59
2022/05/27 06:19:19;;;;;;;4.90;1.00;;;;;;;19.14;48.17;98946.63;233599;1217;139690;-59
2022/05/27 06:24:22;;;;;;;1.90;0.80;;;;;;;19.12;48.34;98938.60;233859;1217;140188;-61
2022/05/27 06:34:47;;;;;;;7.20;2.70;;;;;;;19.19;48.52;98930.02;233080;1217;138811;-60
2022/05/27 06:39:51;;;;;;;3.60;1.10;;;;;;;19.27;48.52;98925.20;233199;1217;138403;-60
2022/05/27 06:44:54;;;;;;;4.50;1.30;;;;;;;19.32;48.35;98923.30;233596;1217;139296;-59
2022/05/27 06:49:59;;;;;;;2.90;1.00;;;;;;;19.36;48.28;98907.24;233550;1217;141043;-61
2022/05/27 06:55:02;;;;;;;4.90;1.50;;;;;;;19.41;48.54;98899.39;233498;1217;142298;-59
2022/05/27 07:00:08;;;;;;;5.20;1.10;;;;;;;19.50;48.54;98893.91;233802;1217;140206;-60
2022/05/27 07:05:11;;;;;;;23.50;19.80;;;;;;;19.58;48.43;98884.64;233724;1217;140086;-59
2022/05/27 07:10:14;;;;;;;5.70;1.80;;;;;;;19.67;48.36;98881.63;233250;1217;139044;-60
2022/05/27 07:15:18;;;;;;;3.80;1.30;;;;;;;19.72;48.22;98867.03;233365;1217;139451;-59
2022/05/27 07:20:22;;;;;;;4.60;1.10;;;;;;;19.86;48.22;98875.56;233688;1217;139136;-60
2022/05/27 07:25:35;;;;;;;7.90;1.00;;;;;;;19.94;47.95;98869.84;233346;1219;139201;-61
2022/05/27 07:30:42;;;;;;;4.40;1.10;;;;;;;20.05;47.71;98864.02;232519;1217;138727;-61
2022/05/27 07:35:45;;;;;;;4.60;1.00;;;;;;;20.10;47.66;98851.48;233541;1217;139097;-61
2022/05/27 07:40:48;;;;;;;2.90;1.00;;;;;;;20.20;47.68;98844.48;233665;1216;138990;-59
2022/05/27 07:45:51;;;;;;;2.80;1.40;;;;;;;20.27;47.58;98830.23;233680;1217;138516;-60
2022/05/27 07:50:55;;;;;;;4.10;1.10;;;;;;;20.34;47.30;98837.56;233458;1217;138677;-61
2022/05/27 07:55:58;;;;;;;3.40;1.20;;;;;;;20.40;47.06;98830.20;233263;1217;139495;-60
2022/05/27 08:01:02;;;;;;;3.80;1.10;;;;;;;20.49;47.05;98819.69;231981;1217;139582;-63
2022/05/27 08:06:05;;;;;;;3.00;1.10;;;;;;;20.59;46.98;98807.14;233627;1217;138810;-58
2022/05/27 08:11:08;;;;;;;4.10;1.00;;;;;;;20.71;46.81;98788.23;233657;1217;138748;-59
2022/05/27 08:16:11;;;;;;;2.60;1.10;;;;;;;20.80;46.71;98773.04;233503;1217;138949;-61
2022/05/27 08:21:14;;;;;;;5.90;1.30;;;;;;;20.97;46.62;98772.31;232219;1217;139444;-60
2022/05/27 08:26:18;;;;;;;4.20;1.10;;;;;;;21.07;46.11;98775.30;233518;1217;139259;-60
2022/05/27 08:31:21;;;;;;;5.80;1.00;;;;;;;21.12;45.82;98764.95;232750;1217;138802;-61
2022/05/27 08:41:58;;;;;;;8.50;1.10;;;;;;;21.24;45.11;98773.98;232505;1217;138606;-61
2022/05/27 08:47:12;;;;;;;6.60;1.40;;;;;;;21.26;45.03;98753.71;233520;1217;139182;-62
2022/05/27 08:52:25;;;;;;;3.90;1.10;;;;;;;21.34;44.93;98757.30;232237;1217;139001;-62
2022/05/27 09:02:57;;;;;;;3.30;1.00;;;;;;;21.43;44.36;98746.08;233664;1217;138854;-60
2022/05/27 09:08:16;;;;;;;2.70;0.80;;;;;;;21.42;44.06;98736.34;233676;1217;138959;-62
2022/05/27 09:13:30;;;;;;;2.90;0.90;;;;;;;21.57;43.99;98727.49;233710;1217;139019;-60
2022/05/27 09:18:54;;;;;;;3.90;1.10;;;;;;;21.76;43.79;98739.09;233801;1217;138726;-61
2022/05/27 09:24:22;;;;;;;2.90;1.10;;;;;;;21.96;43.60;98732.11;233624;1217;138851;-59
2022/05/27 09:29:48;;;;;;;6.20;1.00;;;;;;;21.99;43.25;98719.34;233536;1217;138888;-59
2022/05/27 09:34:56;;;;;;;5.80;1.00;;;;;;;21.92;43.11;98699.15;233617;1216;138810;-57
2022/05/27 09:40:07;;;;;;;4.40;0.90;;;;;;;21.89;43.17;98693.83;233695;1217;138824;-64
2022/05/27 09:45:11;;;;;;;4.20;1.10;;;;;;;22.00;42.83;98686.88;233689;1215;139856;-61
2022/05/27 09:50:24;;;;;;;5.10;1.10;;;;;;;22.08;42.84;98679.72;233621;1215;138925;-61
2022/05/27 09:55:46;;;;;;;3.40;1.10;;;;;;;22.16;42.73;98669.77;233471;1217;139599;-62
2022/05/27 10:00:49;;;;;;;10.20;1.20;;;;;;;22.34;42.82;98669.84;232956;1217;138721;-61
2022/05/27 10:06:00;;;;;;;4.10;0.70;;;;;;;22.55;42.67;98667.39;233655;1217;139517;-61
2022/05/27 10:11:13;;;;;;;;;;;;;;;22.68;42.51;98640.70;233612;1217;138604;-63
2022/05/27 10:16:26;;;;;;;6.00;0.90;;;;;;;22.90;42.30;98651.01;233671;1215;125428;-61
2022/05/27 10:21:31;;;;;;;9.90;1.30;;;;;;;22.98;42.12;98630.34;233379;1217;138696;-61
2022/05/27 10:26:34;;;;;;;5.50;0.90;;;;;;;23.05;41.69;98628.36;233479;1217;139503;-61
2022/05/27 10:31:48;;;;;;;4.60;1.10;;;;;;;23.07;41.55;98632.84;233682;1217;138896;-61
2022/05/27 10:37:00;;;;;;;7.80;1.50;;;;;;;22.96;41.49;98624.60;232869;1217;138772;-61
2022/05/27 10:42:03;;;;;;;4.30;1.20;;;;;;;22.84;41.40;98618.39;233680;1216;138708;-63
2022/05/27 10:47:22;;;;;;;6.40;1.20;;;;;;;22.73;41.36;98616.31;233420;1219;138978;-59
2022/05/27 10:53:02;;;;;;;8.00;1.10;;;;;;;22.59;41.56;98601.67;233054;1217;138660;-59
2022/05/27 11:04:20;;;;;;;8.60;1.20;;;;;;;22.36;41.78;98603.34;233624;1216;138682;-59
2022/05/27 11:09:35;;;;;;;5.60;1.10;;;;;;;22.28;41.92;98587.23;233920;1217;139257;-61
2022/05/27 11:15:12;;;;;;;9.40;1.30;;;;;;;22.34;42.06;98586.45;233453;1217;139025;-60
2022/05/27 11:20:33;;;;;;;7.90;1.20;;;;;;;22.39;42.08;98579.07;233216;1217;138866;-61
2022/05/27 11:26:01;;;;;;;73.30;55.20;;;;;;;22.36;42.03;98587.95;233473;1217;139482;-62
2022/05/27 11:31:25;;;;;;;7.90;1.60;;;;;;;22.33;42.03;98564.44;233521;1217;140328;-62
2022/05/27 11:36:56;;;;;;;5.10;1.10;;;;;;;22.31;42.07;98566.29;233634;1217;139234;-61
2022/05/27 11:42:02;;;;;;;12.00;2.50;;;;;;;22.23;42.04;98564.94;233673;1217;138290;-61
2022/05/27 11:47:17;;;;;;;9.00;1.10;;;;;;;22.18;42.18;98562.62;233654;1217;139546;-61
2022/05/27 11:52:36;;;;;;;7.40;1.20;;;;;;;22.14;42.37;98558.96;231833;1217;138344;-61
2022/05/27 11:57:59;;;;;;;6.90;1.20;;;;;;;22.07;42.34;98543.68;233181;1217;139086;-60
2022/05/27 12:03:15;;;;;;;4.90;1.30;;;;;;;22.05;42.49;98543.52;231279;1217;139578;-61
2022/05/27 12:08:31;;;;;;;15.80;12.10;;;;;;;21.99;42.35;98533.61;233475;1217;140044;-60
2022/05/27 12:13:36;;;;;;;5.60;1.90;;;;;;;21.93;42.73;98540.55;233048;1219;139421;-61
2022/05/27 12:18:49;;;;;;;7.50;1.60;;;;;;;21.93;42.94;98560.85;233407;1217;139663;-60
2022/05/27 12:24:00;;;;;;;7.60;2.10;;;;;;;21.86;43.54;98570.80;233574;1216;138850;-60
2022/05/27 12:29:09;;;;;;;8.60;2.50;;;;;;;21.71;44.35;98598.35;233708;1217;138872;-61
2022/05/27 12:34:27;;;;;;;9.60;2.20;;;;;;;21.46;45.45;98595.34;233436;1217;139300;-62
2022/05/27 12:39:31;;;;;;;5.10;1.90;;;;;;;21.21;46.83;98590.00;233618;1217;139207;-59
2022/05/27 12:44:34;;;;;;;4.10;1.90;;;;;;;21.00;47.69;98585.22;233701;1217;138710;-61
2022/05/27 12:49:39;;;;;;;4.10;1.60;;;;;;;20.59;47.60;98613.05;232291;1216;138531;-61
2022/05/27 12:54:42;;;;;;;4.80;1.40;;;;;;;20.07;47.37;98623.73;234194;1217;139782;-63
2022/05/27 13:05:14;;;;;;;1.80;1.00;;;;;;;18.93;48.34;98635.52;234133;1217;138299;-61
2022/05/27 13:10:17;;;;;;;1.90;1.00;;;;;;;18.44;48.98;98672.31;231908;1216;139114;-60
2022/05/27 13:15:20;;;;;;;2.00;1.20;;;;;;;18.13;49.52;98698.23;233221;1217;138656;-59
2022/05/27 13:20:45;;;;;;;4.40;0.90;;;;;;;17.82;50.27;98731.91;232504;1216;139051;-62
2022/05/27 13:26:03;;;;;;;2.40;1.00;;;;;;;17.46;50.46;98735.00;233606;1217;138863;-62
2022/05/27 13:31:13;;;;;;;3.00;0.80;;;;;;;17.15;51.08;98748.58;233216;1216;138647;-60
2022/05/27 13:36:35;;;;;;;4.60;2.80;;;;;;;16.90;51.61;98765.73;232904;1216;139440;-59
2022/05/27 13:41:41;;;;;;;3.80;1.40;;;;;;;16.67;51.77;98773.35;233229;1217;138632;-61
2022/05/27 13:46:50;;;;;;;4.60;1.10;;;;;;;16.49;52.49;98784.34;233184;1215;139246;-60
2022/05/27 13:51:53;;;;;;;2.20;1.00;;;;;;;16.31;53.01;98798.27;233714;1216;139642;-60
2022/05/27 13:57:01;;;;;;;1.90;1.00;;;;;;;16.23;53.43;98801.33;232131;1216;138801;-60
2022/05/27 14:02:14;;;;;;;2.20;1.10;;;;;;;16.16;53.75;98804.80;233012;1217;138835;-62
2022/05/27 14:07:27;;;;;;;5.70;2.70;;;;;;;16.13;54.07;98797.80;232074;1217;138976;-61
2022/05/27 14:12:33;;;;;;;4.60;1.90;;;;;;;16.09;54.12;98796.67;232022;1216;138648;-60
2022/05/27 14:17:45;;;;;;;2.00;0.90;;;;;;;15.99;54.33;98814.23;234074;1217;138457;-61
2022/05/27 14:22:50;;;;;;;1.30;1.00;;;;;;;15.88;54.34;98808.00;234232;1216;139209;-62
2022/05/27 14:27:56;;;;;;;;;;;;;;;15.80;54.79;98803.02;233536;1216;138831;-62
2022/05/27 14:32:59;;;;;;;2.90;1.20;;;;;;;15.72;54.85;98820.15;234300;1217;125138;-62
2022/05/27 14:38:11;;;;;;;2.00;1.00;;;;;;;15.70;55.20;98821.98;233532;1217;138432;-63
2022/05/27 14:43:35;;;;;;;1.10;0.90;;;;;;;15.69;55.36;98815.57;232058;1217;138869;-63
2022/05/27 14:48:39;;;;;;;1.90;1.10;;;;;;;15.63;55.65;98810.54;233103;1216;138442;-63
2022/05/27 14:53:42;;;;;;;3.70;1.10;;;;;;;15.68;55.70;98837.27;233940;1217;140615;-62
2022/05/27 14:58:45;;;;;;;3.20;1.20;;;;;;;15.75;55.97;98834.91;232173;1216;138928;-61
2022/05/27 15:04:08;;;;;;;3.10;1.10;;;;;;;15.76;56.06;98829.66;231727;1217;138638;-60
2022/05/27 15:09:21;;;;;;;2.30;1.10;;;;;;;15.74;56.28;98861.69;232829;1217;139431;-63
2022/05/27 15:14:29;;;;;;;2.30;1.30;;;;;;;15.70;56.46;98881.14;234243;1217;139009;-63
2022/05/27 15:19:45;;;;;;;2.20;1.40;;;;;;;15.69;56.46;98867.67;231911;1217;138687;-62
2022/05/27 15:24:57;;;;;;;22.10;13.70;;;;;;;15.63;56.46;98873.30;233160;1216;139523;-62
2022/05/27 15:35:42;;;;;;;4.80;1.40;;;;;;;15.52;56.55;98847.05;233193;1217;138634;-62
2022/05/27 15:40:47;;;;;;;4.10;1.60;;;;;;;15.53;56.45;98872.42;233522;1217;138756;-62
2022/05/27 15:45:51;;;;;;;1.80;1.30;;;;;;;15.55;56.55;98854.48;232976;1217;138570;-62
2022/05/27 15:50:55;;;;;;;2.70;1.50;;;;;;;15.61;56.49;98861.13;233512;1217;139647;-63
2022/05/27 15:55:58;;;;;;;2.80;1.40;;;;;;;15.64;56.36;98838.90;232662;1217;139819;-62
2022/05/27 16:01:02;;;;;;;3.50;1.80;;;;;;;15.57;56.27;98821.39;233550;1217;138753;-64
2022/05/27 16:06:07;;;;;;;3.20;1.40;;;;;;;15.59;56.76;98830.69;233509;1217;138880;-62
2022/05/27 16:11:10;;;;;;;3.60;2.00;;;;;;;15.60;56.77;98849.43;233294;1217;139322;-64
2022/05/27 16:21:35;;;;;;;25.40;17.90;;;;;;;15.47;56.93;98836.60;233591;1217;139518;-62
2022/05/27 16:26:38;;;;;;;5.40;2.70;;;;;;;15.40;57.32;98836.61;233299;1217;139333;-62
2022/05/27 16:31:43;;;;;;;3.10;1.90;;;;;;;15.37;57.41;98841.20;233442;1217;139677;-62
2022/05/27 16:36:46;;;;;;;3.20;1.80;;;;;;;15.27;57.43;98830.98;233567;1217;139944;-62
2022/05/27 16:41:50;;;;;;;3.30;1.70;;;;;;;15.27;57.78;98843.66;233424;1217;140915;-62
2022/05/27 16:46:54;;;;;;;2.00;1.60;;;;;;;15.23;57.89;98830.94;233482;1217;138786;-62
2022/05/27 16:51:57;;;;;;;3.60;1.60;;;;;;;15.14;58.05;98844.21;233582;1217;139595;-62
2022/05/27 16:57:00;;;;;;;6.10;1.60;;;;;;;15.05;58.22;98837.64;233435;1217;139310;-61
2022/05/27 17:02:05;;;;;;;1.80;1.50;;;;;;;15.01;58.15;98829.43;233448;1217;138890;-63
2022/05/27 17:07:08;;;;;;;4.10;1.80;;;;;;;14.85;58.16;98812.29;233650;1217;139019;-61
2022/05/27 17:12:11;;;;;;;5.60;1.70;;;;;;;14.75;58.24;98815.69;233333;1217;138690;-62
2022/05/27 17:17:15;;;;;;;3.00;1.70;;;;;;;14.64;58.32;98815.52;232528;1216;138554;-61
2022/05/27 17:22:18;;;;;;;3.50;1.70;;;;;;;14.61;58.62;98806.24;234123;1217;139885;-62
2022/05/27 17:27:21;;;;;;;3.50;2.30;;;;;;;14.61;58.65;98813.45;232275;1216;139355;-62
2022/05/27 17:32:24;;;;;;;7.20;3.70;;;;;;;14.60;58.98;98809.94;232230;1217;138736;-63
2022/05/27 17:37:28;;;;;;;6.70;2.10;;;;;;;14.59;58.85;98807.20;234167;1217;138654;-63
2022/05/27 17:42:31;;;;;;;2.20;1.70;;;;;;;14.51;58.64;98821.77;234208;1216;138631;-64
2022/05/27 17:52:56;;;;;;;6.30;2.60;;;;;;;14.32;58.93;98823.25;234155;1216;138420;-63
2022/05/27 17:57:59;;;;;;;3.50;2.00;;;;;;;14.28;59.29;98838.43;233972;1217;138565;-64
2022/05/27 18:03:02;;;;;;;3.60;2.10;;;;;;;14.23;59.06;98819.52;234142;1217;139848;-64
2022/05/27 18:08:06;;;;;;;4.50;2.40;;;;;;;14.12;59.08;98796.35;234180;1217;140435;-64
2022/05/27 18:13:09;;;;;;;3.30;1.90;;;;;;;14.11;59.25;98789.23;233519;1217;138920;-64
2022/05/27 18:18:15;;;;;;;3.50;1.60;;;;;;;14.07;59.43;98800.30;233420;1219;139186;-64
2022/05/27 18:23:18;;;;;;;3.40;2.10;;;;;;;14.06;59.26;98825.16;233362;1217;139250;-64
2022/05/27 18:28:21;;;;;;;4.70;1.90;;;;;;;13.98;59.37;98791.64;233403;1217;138663;-64
2022/05/27 18:33:24;;;;;;;6.50;2.20;;;;;;;14.04;59.41;98797.72;233418;1217;139987;-64
2022/05/27 18:38:27;;;;;;;3.10;1.90;;;;;;;14.13;59.64;98806.80;233530;1217;139396;-63
2022/05/27 18:43:31;;;;;;;2.90;1.80;;;;;;;14.10;59.44;98806.81;233350;1217;139149;-64
2022/05/27 18:48:34;;;;;;;3.00;1.80;;;;;;;14.06;59.69;98798.29;233498;1217;138714;-63
2022/05/27 18:53:38;;;;;;;5.10;2.30;;;;;;;13.99;59.52;98799.16;233421;1217;138699;-63
2022/05/27 18:58:41;;;;;;;5.30;2.20;;;;;;;13.98;59.73;98806.38;233399;1217;139100;-62
2022/05/27 19:03:44;;;;;;;26.30;17.60;;;;;;;13.99;60.18;98804.15;233403;1217;139017;-62
2022/05/27 19:08:47;;;;;;;11.00;5.00;;;;;;;14.23;60.28;98800.82;233460;1217;140257;-62
2022/05/27 19:13:50;;;;;;;6.00;2.80;;;;;;;14.25;60.01;98800.84;233504;1217;139505;-63
2022/05/27 19:24:15;;;;;;;20.70;13.90;;;;;;;14.15;60.10;98810.36;233500;1217;139012;-63
2022/05/27 19:29:18;;;;;;;6.60;4.10;;;;;;;14.15;60.31;98809.45;232832;1219;139467;-56
2022/05/27 19:34:21;;;;;;;7.50;3.20;;;;;;;14.17;59.90;98811.98;233561;1217;138948;-62
2022/05/27 19:39:25;;;;;;;4.50;2.60;;;;;;;14.12;59.91;98805.58;233902;1217;139402;-61
2022/05/27 19:44:28;;;;;;;4.20;2.70;;;;;;;14.06;59.97;98800.40;233618;1217;138749;-62
2022/05/27 19:49:31;;;;;;;4.70;2.80;;;;;;;14.03;59.96;98800.64;233510;1217;139349;-60
2022/05/27 19:54:35;;;;;;;5.30;3.10;;;;;;;14.05;60.10;98793.35;233583;1217;140083;-61
2022/05/27 19:59:38;;;;;;;4.90;3.20;;;;;;;14.10;60.29;98796.33;233538;1217;139367;-60
2022/05/27 20:04:53;;;;;;;23.50;19.80;;;;;;;14.11;60.27;98794.09;232752;1217;139233;-60
2022/05/27 20:10:01;;;;;;;7.10;4.70;;;;;;;14.12;60.30;98790.44;233334;1217;138841;-62
2022/05/27 20:15:07;;;;;;;4.70;3.20;;;;;;;14.16;60.40;98782.27;233342;1217;139354;-63
2022/05/27 20:20:10;;;;;;;5.10;3.40;;;;;;;14.18;60.34;98788.35;233431;1217;138880;-63
2022/05/27 20:25:17;;;;;;;6.90;5.00;;;;;;;14.17;60.34;98792.36;233510;1217;139585;-63
2022/05/27 20:30:21;;;;;;;7.90;3.40;;;;;;;14.15;60.30;98777.95;233658;1217;139543;-62
2022/05/27 20:36:57;;;;;;;5.30;3.30;;;;;;;14.19;60.67;98771.51;233466;1217;139395;-62
2022/05/27 20:40:47;;;;;;;6.40;3.80;;;;;;;14.17;60.48;98766.81;233411;1217;138987;-62
2022/05/27 20:45:50;;;;;;;7.30;3.80;;;;;;;14.14;60.54;98762.27;233416;1217;138842;-62
2022/05/27 20:50:53;;;;;;;7.10;4.10;;;;;;;14.14;60.61;98765.96;233464;1217;138951;-63
2022/05/27 20:55:56;;;;;;;6.70;4.00;;;;;;;14.11;60.51;98765.03;233566;1217;139101;-63
2022/05/27 21:01:00;;;;;;;11.60;7.20;;;;;;;14.06;60.58;98759.00;233562;1217;138855;-63
2022/05/27 21:06:03;;;;;;;7.30;4.70;;;;;;;14.02;60.76;98762.91;233439;1217;141455;-63
2022/05/27 21:11:08;;;;;;;124.30;101.10;;;;;;;13.99;60.76;98757.23;233413;1217;140038;-63
2022/05/27 21:16:17;;;;;;;7.60;5.30;;;;;;;14.03;60.84;98756.96;233360;1217;140265;-64
2022/05/27 21:21:24;;;;;;;7.70;5.10;;;;;;;14.03;60.81;98755.64;233521;1217;138617;-62
2022/05/27 21:26:27;;;;;;;5.20;4.60;;;;;;;14.01;60.81;98754.23;233598;1217;138848;-62
2022/05/27 21:31:30;;;;;;;8.80;5.00;;;;;;;13.95;60.95;98756.30;233689;1217;138624;-63
2022/05/27 21:36:34;;;;;;;7.90;5.00;;;;;;;13.94;60.81;98754.99;233628;1215;138742;-63
2022/05/27 21:41:37;;;;;;;7.20;4.70;;;;;;;13.90;61.05;98756.52;233423;1217;139218;-62
2022/05/27 21:46:41;;;;;;;10.10;5.20;;;;;;;13.83;61.16;98759.73;233528;1216;138667;-63
2022/05/27 21:51:44;;;;;;;10.70;5.30;;;;;;;13.81;61.27;98770.27;233520;1217;139723;-63
2022/05/27 21:56:47;;;;;;;10.70;5.50;;;;;;;13.78;61.12;98766.61;233485;1217;139570;-63
2022/05/27 22:01:50;;;;;;;9.90;5.80;;;;;;;13.76;61.11;98764.60;233528;1217;138776;-63
2022/05/27 22:06:53;;;;;;;12.60;7.10;;;;;;;13.71;61.14;98766.22;233739;1217;139369;-63
2022/05/27 22:17:18;;;;;;;10.10;6.60;;;;;;;13.61;61.28;98757.61;233540;1216;139289;-62
2022/05/27 22:22:24;;;;;;;13.40;7.20;;;;;;;13.56;61.72;98751.95;233671;1217;140849;-63
2022/05/27 22:27:28;;;;;;;9.00;7.10;;;;;;;13.57;61.47;98752.42;233478;1217;139777;-63
2022/05/27 22:32:32;;;;;;;11.30;7.40;;;;;;;13.58;61.59;98753.36;233593;1217;139145;-63
2022/05/27 22:37:35;;;;;;;10.20;7.80;;;;;;;13.61;61.84;98760.27;233621;1217;139324;-63
2022/05/27 22:42:38;;;;;;;9.50;7.60;;;;;;;13.62;61.82;98764.30;233835;1217;138905;-63
2022/05/27 22:47:43;;;;;;;11.40;7.60;;;;;;;13.61;61.99;98762.02;233624;1217;138689;-63
2022/05/27 22:52:46;;;;;;;8.90;6.70;;;;;;;13.58;61.63;98755.34;233488;1217;139744;-63
2022/05/27 22:57:49;;;;;;;8.30;6.50;;;;;;;13.54;61.88;98760.28;233521;1216;138824;-62
2022/05/27 23:02:52;;;;;;;9.20;6.50;;;;;;;13.52;62.12;98768.48;233422;1217;138800;-63
2022/05/27 23:07:55;;;;;;;8.70;6.70;;;;;;;13.57;62.02;98765.23;233475;1217;139451;-64
2022/05/27 23:18:20;;;;;;;10.20;5.90;;;;;;;13.70;62.24;98762.02;233852;1217;138983;-63
2022/05/27 23:23:27;;;;;;;9.80;6.20;;;;;;;13.82;62.39;98758.61;233637;1215;139184;-63
2022/05/27 23:28:30;;;;;;;7.10;6.00;;;;;;;13.90;62.64;98741.35;233592;1216;139973;-63
2022/05/27 23:33:33;;;;;;;10.00;6.50;;;;;;;13.91;62.53;98743.90;233653;1216;139643;-63
2022/05/27 23:38:36;;;;;;;12.40;7.00;;;;;;;13.89;62.36;98735.77;233895;1217;139398;-62
2022/05/27 23:43:39;;;;;;;9.50;6.30;;;;;;;13.82;62.34;98736.29;232519;1217;139052;-61
2022/05/27 23:48:42;;;;;;;10.50;6.10;;;;;;;13.79;62.09;98736.05;233446;1217;139906;-61
2022/05/27 23:53:47;;;;;;;10.30;6.50;;;;;;;13.83;62.49;98755.11;233610;1217;139402;-61
2022/05/27 23:58:51;;;;;;;9.50;6.10;;;;;;;13.83;62.28;98751.41;233433;1218;140123;-62
